Terminal Aerodrome Forecast
Issued by NWS

Home | Current Version | Previous Version | Text Only | Print | Product List | Glossary On
Versions: 1 2 3 4 5 6 7 8 9 10 11 12 13 14 15 16 17
000
FTUS42 KTAE 030527
TAFVLD
TAF
KVLD 030527Z 0306/0406 00000KT P6SM SCT120
     FM030900 00000KT 4SM BR SCT001
     FM031300 VRB05KT P6SM FEW030
     FM031700 17004KT P6SM VCTS SCT040CB
      TEMPO 0322/0402 VRB10G20KT P6SM TSRA BKN035CB=

USA.gov is the U.S. government's official web portal to all federal, state and local government web resources and services.